Time;durP1;ratioP1;P1;durP2;ratioP2;P2;SDS_P1;SDS_P2;PMS_P1;PMS_P2;Temp;Humidity;BMP_temperature;BMP_pressure;BME280_temperature;BME280_humidity;BME280_pressure;Samples;Min_cycle;Max_cycle;Signal;HPM_P1;HPM_P2
2023/08/17 00:01:48;;;;;;;9.20;5.30;;;;;;;;;;5040231;28;20539;-78
2023/08/17 00:04:13;;;;;;;6.07;5.07;;;;;;;;;;5040331;28;20021;-76
2023/08/17 00:06:38;;;;;;;8.10;6.07;;;;;;;;;;5039920;28;20473;-78
2023/08/17 00:09:04;;;;;;;10.90;5.90;;;;;;;;;;5037710;28;20075;-78
2023/08/17 00:11:29;;;;;;;12.45;5.95;;;;;;;;;;5039834;28;20029;-77
2023/08/17 00:13:54;;;;;;;6.65;5.35;;;;;;;;;;5038722;28;20412;-79
2023/08/17 00:16:20;;;;;;;8.25;6.10;;;;;;;;;;5039886;28;20048;-78
2023/08/17 00:18:45;;;;;;;9.15;5.28;;;;;;;;;;5038183;28;20025;-78
2023/08/17 00:21:10;;;;;;;8.50;5.70;;;;;;;;;;5039369;28;20025;-78
2023/08/17 00:23:36;;;;;;;6.20;5.10;;;;;;;;;;5040025;28;20030;-76
2023/08/17 00:26:01;;;;;;;10.35;5.38;;;;;;;;;;5038285;28;20175;-78
2023/08/17 00:28:26;;;;;;;6.95;5.65;;;;;;;;;;5040474;28;20416;-78
2023/08/17 00:30:52;;;;;;;7.75;5.65;;;;;;;;;;5040532;28;20506;-78
2023/08/17 00:33:17;;;;;;;10.10;5.15;;;;;;;;;;5041163;28;20416;-79
2023/08/17 00:35:43;;;;;;;7.20;5.35;;;;;;;;;;5041154;28;20033;-78
2023/08/17 00:38:08;;;;;;;7.95;5.20;;;;;;;;;;5039068;28;20048;-77
2023/08/17 00:40:34;;;;;;;7.90;5.90;;;;;;;;;;5037557;28;20025;-78
2023/08/17 00:42:59;;;;;;;8.75;5.43;;;;;;;;;;5038732;28;20032;-78
2023/08/17 00:45:25;;;;;;;10.27;5.23;;;;;;;;;;5039270;28;20495;-78
2023/08/17 00:47:50;;;;;;;11.60;5.45;;;;;;;;;;5041164;28;20367;-78
2023/08/17 00:50:16;;;;;;;6.88;5.47;;;;;;;;;;5042466;28;20027;-77
2023/08/17 00:52:42;;;;;;;7.88;5.47;;;;;;;;;;5042904;28;20081;-79
2023/08/17 00:55:10;;;;;;;8.70;5.43;;;;;;;;;;5043440;28;20047;-78
2023/08/17 00:57:36;;;;;;;7.68;5.07;;;;;;;;;;5043239;28;20025;-79
2023/08/17 01:00:03;;;;;;;7.20;5.45;;;;;;;;;;5041432;28;20106;-77
2023/08/17 01:02:29;;;;;;;7.32;5.70;;;;;;;;;;5042715;28;20021;-79
2023/08/17 01:04:54;;;;;;;7.32;5.47;;;;;;;;;;5041613;28;20075;-79
2023/08/17 01:07:19;;;;;;;7.22;5.28;;;;;;;;;;5043138;28;20030;-78
2023/08/17 01:09:45;;;;;;;8.67;5.20;;;;;;;;;;5044608;28;20105;-79
2023/08/17 01:12:16;;;;;;;7.60;5.32;;;;;;;;;;5042404;28;20266;-79
2023/08/17 01:15:09;;;;;;;8.95;5.55;;;;;;;;;;5041707;28;20107;-79
2023/08/17 01:17:54;;;;;;;12.02;5.97;;;;;;;;;;5035257;28;20037;-79
2023/08/17 01:20:19;;;;;;;7.95;5.50;;;;;;;;;;5044736;28;20112;-79
2023/08/17 01:22:46;;;;;;;8.70;5.68;;;;;;;;;;5046428;28;20017;-79
2023/08/17 01:25:12;;;;;;;10.98;6.38;;;;;;;;;;5046211;28;20389;-79
2023/08/17 01:27:40;;;;;;;11.20;7.30;;;;;;;;;;5046444;28;20032;-79
2023/08/17 01:30:07;;;;;;;9.23;6.97;;;;;;;;;;5046263;28;20372;-79
2023/08/17 01:32:47;;;;;;;10.93;7.78;;;;;;;;;;5046255;28;20032;-78
2023/08/17 01:35:20;;;;;;;8.75;7.35;;;;;;;;;;5045291;28;20033;-77
2023/08/17 01:37:46;;;;;;;10.73;7.53;;;;;;;;;;5044377;28;20052;-77
2023/08/17 01:40:13;;;;;;;10.70;7.75;;;;;;;;;;5040608;28;20281;-78
2023/08/17 01:42:39;;;;;;;9.48;7.60;;;;;;;;;;5036676;28;20037;-76
2023/08/17 01:45:05;;;;;;;12.00;7.85;;;;;;;;;;5037262;28;20033;-78
2023/08/17 01:47:31;;;;;;;10.10;6.75;;;;;;;;;;5039164;28;20025;-78
2023/08/17 01:49:59;;;;;;;10.18;7.00;;;;;;;;;;5041183;28;20017;-77
2023/08/17 01:52:27;;;;;;;10.38;7.13;;;;;;;;;;5041041;28;20104;-78
2023/08/17 01:54:52;;;;;;;11.07;7.22;;;;;;;;;;5038335;28;20481;-77
2023/08/17 01:57:17;;;;;;;9.73;7.00;;;;;;;;;;5041858;28;20116;-75
2023/08/17 01:59:43;;;;;;;9.73;6.50;;;;;;;;;;5044067;28;20282;-78
2023/08/17 02:02:08;;;;;;;7.13;5.82;;;;;;;;;;5045030;28;20680;-79
2023/08/17 02:04:34;;;;;;;9.90;5.97;;;;;;;;;;5039917;28;20040;-77
2023/08/17 02:06:59;;;;;;;7.07;5.25;;;;;;;;;;5037826;28;20021;-77
2023/08/17 02:09:25;;;;;;;7.10;5.57;;;;;;;;;;5043873;28;20029;-78
2023/08/17 02:11:50;;;;;;;9.30;5.63;;;;;;;;;;5039499;28;20320;-78
2023/08/17 02:14:15;;;;;;;6.00;4.72;;;;;;;;;;5039665;28;20313;-77
2023/08/17 02:16:40;;;;;;;6.43;4.95;;;;;;;;;;5039621;28;20028;-77
2023/08/17 02:19:06;;;;;;;10.43;5.03;;;;;;;;;;5042893;28;20076;-79
2023/08/17 02:21:31;;;;;;;5.28;4.53;;;;;;;;;;5043083;28;20285;-78
2023/08/17 02:23:56;;;;;;;6.03;5.00;;;;;;;;;;5042604;28;20096;-79
2023/08/17 02:26:21;;;;;;;8.73;4.30;;;;;;;;;;5043466;28;20336;-78
2023/08/17 02:28:47;;;;;;;6.18;4.22;;;;;;;;;;5042548;28;20333;-78
2023/08/17 02:31:12;;;;;;;6.70;4.30;;;;;;;;;;5041005;28;20124;-77
2023/08/17 02:33:37;;;;;;;5.80;4.20;;;;;;;;;;5040847;28;20440;-79
2023/08/17 02:36:02;;;;;;;6.00;4.30;;;;;;;;;;5041923;28;20029;-79
2023/08/17 02:38:28;;;;;;;5.35;4.25;;;;;;;;;;5041417;28;20257;-80
2023/08/17 02:40:53;;;;;;;5.47;4.20;;;;;;;;;;5043922;28;20029;-79
2023/08/17 02:43:18;;;;;;;5.93;4.10;;;;;;;;;;5042260;28;20278;-80
2023/08/17 02:45:43;;;;;;;5.93;4.00;;;;;;;;;;5042683;28;20263;-78
2023/08/17 02:48:09;;;;;;;9.00;4.13;;;;;;;;;;5042271;28;20318;-78
2023/08/17 02:50:34;;;;;;;7.40;3.97;;;;;;;;;;5041749;28;20618;-79
2023/08/17 02:52:59;;;;;;;5.30;3.50;;;;;;;;;;5041363;28;20277;-78
2023/08/17 02:55:25;;;;;;;4.32;3.75;;;;;;;;;;5042393;28;20255;-77
2023/08/17 02:57:50;;;;;;;5.10;3.72;;;;;;;;;;5043288;28;20060;-79
2023/08/17 03:00:15;;;;;;;5.20;4.00;;;;;;;;;;5043976;28;20112;-79
2023/08/17 03:02:41;;;;;;;5.10;4.28;;;;;;;;;;5041292;28;20026;-79
2023/08/17 03:05:06;;;;;;;5.00;4.00;;;;;;;;;;5042607;28;20036;-76
2023/08/17 03:07:31;;;;;;;5.15;4.38;;;;;;;;;;5038097;28;20262;-78
2023/08/17 03:09:57;;;;;;;5.40;4.33;;;;;;;;;;5039425;28;20515;-78
2023/08/17 03:12:22;;;;;;;5.83;4.70;;;;;;;;;;5040959;28;20383;-76
2023/08/17 03:14:47;;;;;;;6.87;4.83;;;;;;;;;;5039834;28;20321;-77
2023/08/17 03:17:12;;;;;;;9.48;5.25;;;;;;;;;;5040185;28;20282;-79
2023/08/17 03:19:38;;;;;;;7.78;5.10;;;;;;;;;;5040394;28;20030;-78
2023/08/17 03:22:03;;;;;;;7.73;5.33;;;;;;;;;;5041216;28;20017;-79
2023/08/17 03:24:28;;;;;;;9.73;6.43;;;;;;;;;;5041473;28;20361;-78
2023/08/17 03:26:54;;;;;;;10.63;6.53;;;;;;;;;;5039869;28;20055;-77
2023/08/17 03:29:19;;;;;;;9.30;7.15;;;;;;;;;;5037519;28;20052;-77
2023/08/17 03:31:44;;;;;;;11.03;7.57;;;;;;;;;;5037948;28;20027;-79
2023/08/17 03:34:09;;;;;;;12.40;7.70;;;;;;;;;;5039742;28;20263;-77
2023/08/17 03:36:35;;;;;;;9.73;6.90;;;;;;;;;;5039417;28;20022;-76
2023/08/17 03:39:00;;;;;;;12.85;7.75;;;;;;;;;;5038084;28;20332;-77
2023/08/17 03:41:25;;;;;;;9.93;7.78;;;;;;;;;;5039692;28;20028;-79
2023/08/17 03:43:50;;;;;;;8.90;7.00;;;;;;;;;;5040293;28;20085;-79
2023/08/17 03:46:16;;;;;;;9.80;7.43;;;;;;;;;;5039177;28;20563;-79
2023/08/17 03:48:41;;;;;;;12.20;7.72;;;;;;;;;;5041677;28;20261;-79
2023/08/17 03:51:07;;;;;;;10.77;7.50;;;;;;;;;;5041899;28;20025;-78
2023/08/17 03:53:32;;;;;;;16.20;7.38;;;;;;;;;;5042241;28;20286;-78
2023/08/17 03:55:57;;;;;;;10.40;7.43;;;;;;;;;;5039471;28;20032;-78
2023/08/17 03:58:22;;;;;;;11.80;7.82;;;;;;;;;;5041295;28;20315;-77
2023/08/17 04:00:51;;;;;;;10.32;7.97;;;;;;;;;;5042797;28;20029;-80
2023/08/17 04:03:17;;;;;;;10.07;7.78;;;;;;;;;;5042514;28;20029;-80
2023/08/17 04:05:42;;;;;;;10.93;8.07;;;;;;;;;;5041044;28;20029;-79
2023/08/17 04:08:08;;;;;;;8.43;7.15;;;;;;;;;;5040939;28;20102;-74
2023/08/17 04:10:33;;;;;;;12.35;7.22;;;;;;;;;;5041495;28;20025;-79
2023/08/17 04:12:59;;;;;;;10.23;7.75;;;;;;;;;;5039242;28;20028;-79
2023/08/17 04:15:24;;;;;;;10.90;7.75;;;;;;;;;;5040084;28;20374;-78
2023/08/17 04:17:49;;;;;;;13.38;7.45;;;;;;;;;;5040586;28;20029;-78
2023/08/17 04:20:15;;;;;;;10.00;7.17;;;;;;;;;;5042198;28;20486;-79
2023/08/17 04:22:40;;;;;;;10.77;7.85;;;;;;;;;;5041043;28;20273;-76
2023/08/17 04:25:07;;;;;;;9.82;7.22;;;;;;;;;;5042390;28;20025;-77
2023/08/17 04:27:32;;;;;;;8.73;7.25;;;;;;;;;;5042344;28;20334;-78
2023/08/17 04:29:57;;;;;;;11.27;7.43;;;;;;;;;;5042782;28;20104;-77
2023/08/17 04:32:22;;;;;;;9.20;7.53;;;;;;;;;;5042175;28;20629;-78
2023/08/17 04:34:48;;;;;;;12.25;6.90;;;;;;;;;;5040002;28;20254;-78
2023/08/17 04:37:14;;;;;;;11.85;7.15;;;;;;;;;;5043641;28;20072;-77
2023/08/17 04:39:40;;;;;;;8.13;6.53;;;;;;;;;;5043792;28;20102;-79
2023/08/17 04:42:06;;;;;;;8.00;6.53;;;;;;;;;;5043107;28;20022;-78
2023/08/17 04:44:31;;;;;;;9.50;6.88;;;;;;;;;;5042794;28;20056;-76
2023/08/17 04:46:56;;;;;;;10.07;6.50;;;;;;;;;;5040292;28;20021;-76
2023/08/17 04:49:22;;;;;;;9.03;6.67;;;;;;;;;;5040910;28;20273;-78
2023/08/17 04:51:47;;;;;;;11.93;6.57;;;;;;;;;;5039813;28;20258;-79
2023/08/17 04:54:12;;;;;;;9.40;6.60;;;;;;;;;;5041692;28;20270;-79
2023/08/17 04:56:38;;;;;;;11.77;6.70;;;;;;;;;;5042345;28;20254;-78
2023/08/17 04:59:03;;;;;;;9.63;6.40;;;;;;;;;;5043887;28;20022;-79
2023/08/17 05:01:29;;;;;;;9.18;6.78;;;;;;;;;;5043778;28;20079;-78
2023/08/17 05:03:54;;;;;;;8.32;6.35;;;;;;;;;;5045987;28;20056;-78
2023/08/17 05:06:19;;;;;;;8.38;6.00;;;;;;;;;;5044559;28;20085;-78
2023/08/17 05:08:45;;;;;;;7.82;5.90;;;;;;;;;;5045672;28;20044;-78
2023/08/17 05:11:10;;;;;;;8.80;6.47;;;;;;;;;;5045204;28;20067;-77
2023/08/17 05:13:35;;;;;;;11.63;6.23;;;;;;;;;;5044690;28;20481;-76
2023/08/17 05:16:00;;;;;;;8.73;6.40;;;;;;;;;;5045198;28;20338;-79
2023/08/17 05:18:26;;;;;;;7.27;6.30;;;;;;;;;;5043820;28;20052;-75
2023/08/17 05:20:51;;;;;;;10.40;6.80;;;;;;;;;;5042492;28;20320;-77
2023/08/17 05:23:16;;;;;;;8.60;6.37;;;;;;;;;;5042649;28;20025;-79
2023/08/17 05:25:41;;;;;;;8.47;6.20;;;;;;;;;;5044384;28;20318;-76
2023/08/17 05:28:07;;;;;;;7.97;6.00;;;;;;;;;;5045052;28;20274;-79
2023/08/17 05:30:32;;;;;;;6.63;5.82;;;;;;;;;;5045933;28;20604;-79
2023/08/17 05:32:58;;;;;;;14.63;5.70;;;;;;;;;;5043675;28;20021;-77
2023/08/17 05:35:24;;;;;;;7.72;5.25;;;;;;;;;;5043192;28;20021;-78
2023/08/17 05:37:49;;;;;;;6.82;5.43;;;;;;;;;;5042516;28;20052;-79
2023/08/17 05:40:15;;;;;;;7.87;5.47;;;;;;;;;;5043218;28;20021;-78
2023/08/17 05:42:42;;;;;;;9.25;5.35;;;;;;;;;;5040815;28;20251;-78
2023/08/17 05:45:08;;;;;;;9.10;5.57;;;;;;;;;;5042251;28;20040;-77
2023/08/17 05:47:33;;;;;;;7.22;5.20;;;;;;;;;;5042071;28;20026;-77
2023/08/17 05:49:59;;;;;;;7.28;5.32;;;;;;;;;;5042762;28;20460;-78
2023/08/17 05:52:24;;;;;;;8.10;5.37;;;;;;;;;;5041796;28;20022;-79
2023/08/17 05:54:49;;;;;;;6.83;5.27;;;;;;;;;;5038121;28;20757;-78
2023/08/17 05:57:14;;;;;;;7.13;5.20;;;;;;;;;;5038739;28;20290;-78
2023/08/17 05:59:40;;;;;;;7.43;5.05;;;;;;;;;;5037467;28;20267;-78
2023/08/17 06:02:05;;;;;;;7.97;4.93;;;;;;;;;;5037028;28;20029;-77
2023/08/17 06:04:30;;;;;;;8.05;5.20;;;;;;;;;;5037577;28;20337;-79
2023/08/17 06:06:56;;;;;;;7.82;5.03;;;;;;;;;;5037902;28;20500;-77
2023/08/17 06:09:21;;;;;;;6.50;5.32;;;;;;;;;;5038230;28;20496;-77
2023/08/17 06:11:46;;;;;;;7.80;5.32;;;;;;;;;;5038067;28;20033;-80
2023/08/17 06:14:12;;;;;;;6.40;5.15;;;;;;;;;;5038982;28;20029;-80
2023/08/17 06:16:37;;;;;;;6.32;5.40;;;;;;;;;;5037905;28;20021;-81
2023/08/17 06:19:02;;;;;;;8.18;5.40;;;;;;;;;;5037663;28;20026;-78
2023/08/17 06:21:28;;;;;;;8.73;5.68;;;;;;;;;;5037812;28;20488;-82
2023/08/17 06:23:53;;;;;;;6.87;5.43;;;;;;;;;;5038762;28;20029;-79
2023/08/17 06:26:18;;;;;;;7.43;5.22;;;;;;;;;;5039326;28;20270;-79
2023/08/17 06:28:43;;;;;;;7.53;5.68;;;;;;;;;;5037491;28;20430;-78
2023/08/17 06:31:09;;;;;;;10.37;5.53;;;;;;;;;;5038979;28;20029;-80
2023/08/17 06:33:34;;;;;;;7.63;5.95;;;;;;;;;;5038308;28;20321;-75
2023/08/17 06:35:59;;;;;;;10.38;5.60;;;;;;;;;;5037363;28;20427;-76
2023/08/17 06:38:25;;;;;;;9.40;5.63;;;;;;;;;;5034357;28;20033;-77
2023/08/17 06:40:52;;;;;;;8.73;5.95;;;;;;;;;;5035529;28;20025;-78
2023/08/17 06:43:17;;;;;;;8.27;6.13;;;;;;;;;;5035965;28;20080;-77
2023/08/17 06:45:43;;;;;;;9.13;5.85;;;;;;;;;;5036894;28;20029;-81
2023/08/17 06:48:08;;;;;;;10.50;5.68;;;;;;;;;;5033191;28;20033;-75
2023/08/17 06:50:33;;;;;;;11.80;5.68;;;;;;;;;;5034131;28;20025;-76
2023/08/17 06:52:58;;;;;;;7.97;5.28;;;;;;;;;;5033982;28;20443;-73
2023/08/17 06:55:24;;;;;;;11.32;6.15;;;;;;;;;;5033976;28;20029;-72
2023/08/17 06:57:51;;;;;;;9.05;6.10;;;;;;;;;;5034157;28;20028;-75
2023/08/17 07:00:20;;;;;;;7.55;5.35;;;;;;;;;;5032325;28;20440;-74
2023/08/17 07:02:45;;;;;;;8.38;5.60;;;;;;;;;;5032627;28;20044;-74
2023/08/17 07:05:11;;;;;;;10.23;6.03;;;;;;;;;;5033424;28;20029;-75
2023/08/17 07:07:36;;;;;;;8.95;5.93;;;;;;;;;;5034170;28;20033;-75
2023/08/17 07:10:01;;;;;;;13.07;6.43;;;;;;;;;;5033776;28;20496;-75
2023/08/17 07:12:28;;;;;;;8.23;6.10;;;;;;;;;;5032376;28;20702;-75
2023/08/17 07:14:53;;;;;;;12.68;6.93;;;;;;;;;;5033849;28;20100;-75
2023/08/17 07:17:19;;;;;;;11.38;6.10;;;;;;;;;;5033617;28;20124;-75
2023/08/17 07:19:44;;;;;;;11.20;6.70;;;;;;;;;;5033057;28;20454;-75
2023/08/17 07:22:09;;;;;;;8.45;6.25;;;;;;;;;;5033774;28;20075;-75
2023/08/17 07:24:35;;;;;;;10.30;5.90;;;;;;;;;;5033456;28;20104;-73
2023/08/17 07:27:00;;;;;;;9.20;5.93;;;;;;;;;;5032051;28;20262;-75
2023/08/17 07:29:25;;;;;;;10.13;5.73;;;;;;;;;;5033645;28;20017;-75
2023/08/17 07:31:50;;;;;;;8.18;5.82;;;;;;;;;;5033457;28;20262;-75
2023/08/17 07:34:16;;;;;;;6.97;5.70;;;;;;;;;;5033216;28;20362;-76
2023/08/17 07:36:41;;;;;;;8.60;5.43;;;;;;;;;;5033220;28;20067;-76
2023/08/17 07:39:06;;;;;;;8.15;5.38;;;;;;;;;;5033045;28;20289;-75
2023/08/17 07:41:32;;;;;;;8.65;5.40;;;;;;;;;;5033194;28;20033;-76
2023/08/17 07:43:57;;;;;;;8.02;5.15;;;;;;;;;;5033087;28;20033;-77
2023/08/17 07:46:22;;;;;;;7.57;4.88;;;;;;;;;;5032602;28;20036;-76
2023/08/17 07:48:48;;;;;;;10.50;4.70;;;;;;;;;;5032348;28;20029;-76
2023/08/17 07:51:14;;;;;;;6.85;4.68;;;;;;;;;;5032186;28;20029;-76
2023/08/17 07:53:39;;;;;;;8.35;4.93;;;;;;;;;;5033109;28;20036;-76
2023/08/17 07:56:04;;;;;;;6.32;5.05;;;;;;;;;;5032839;28;20024;-76
2023/08/17 07:58:30;;;;;;;5.03;4.53;;;;;;;;;;5033000;28;20029;-76
2023/08/17 08:00:55;;;;;;;6.33;4.80;;;;;;;;;;5033136;28;20345;-74
2023/08/17 08:03:20;;;;;;;11.00;4.68;;;;;;;;;;5031606;28;20269;-76
2023/08/17 08:05:46;;;;;;;8.30;4.50;;;;;;;;;;5031525;28;20024;-76
2023/08/17 08:08:11;;;;;;;7.53;5.13;;;;;;;;;;5032836;28;20251;-75
2023/08/17 08:10:36;;;;;;;6.10;5.00;;;;;;;;;;5032718;28;20021;-76
2023/08/17 08:13:02;;;;;;;13.07;5.18;;;;;;;;;;5033170;28;20052;-76
2023/08/17 08:15:28;;;;;;;8.23;4.13;;;;;;;;;;5033032;28;20078;-76
2023/08/17 08:17:53;;;;;;;9.73;4.75;;;;;;;;;;5032865;28;20108;-76
2023/08/17 08:20:20;;;;;;;7.40;4.45;;;;;;;;;;5033043;28;20021;-76
2023/08/17 08:22:45;;;;;;;6.30;4.70;;;;;;;;;;5031555;28;20025;-75
2023/08/17 08:25:10;;;;;;;5.72;4.15;;;;;;;;;;5031194;28;20024;-75
2023/08/17 08:27:36;;;;;;;5.67;4.63;;;;;;;;;;5033097;28;20052;-75
2023/08/17 08:30:01;;;;;;;7.20;4.72;;;;;;;;;;5032983;28;20267;-76
2023/08/17 08:32:26;;;;;;;6.47;4.40;;;;;;;;;;5036634;28;20025;-76
2023/08/17 08:34:51;;;;;;;7.15;4.40;;;;;;;;;;5035690;28;20251;-76
2023/08/17 08:37:17;;;;;;;6.78;4.75;;;;;;;;;;5036142;28;20034;-76
2023/08/17 08:39:53;;;;;;;8.10;4.35;;;;;;;;;;5036147;28;20342;-75
2023/08/17 08:42:19;;;;;;;6.95;4.60;;;;;;;;;;5036469;28;20083;-75
2023/08/17 08:44:45;;;;;;;7.07;4.85;;;;;;;;;;5036569;28;20049;-76
2023/08/17 08:47:12;;;;;;;5.10;4.38;;;;;;;;;;5035131;28;20493;-75
2023/08/17 08:49:40;;;;;;;6.20;4.63;;;;;;;;;;5036716;28;20056;-76
2023/08/17 08:52:16;;;;;;;9.07;4.63;;;;;;;;;;5036783;28;20057;-76
2023/08/17 08:54:44;;;;;;;8.07;5.00;;;;;;;;;;5036484;28;20052;-76
2023/08/17 08:57:14;;;;;;;5.32;3.72;;;;;;;;;;5036248;28;20117;-75
2023/08/17 08:59:45;;;;;;;6.95;4.70;;;;;;;;;;5036007;28;20032;-75
2023/08/17 09:02:15;;;;;;;5.22;4.13;;;;;;;;;;5036268;28;20021;-76
2023/08/17 09:04:40;;;;;;;8.90;4.43;;;;;;;;;;5036042;28;20029;-75
2023/08/17 09:07:06;;;;;;;5.40;4.35;;;;;;;;;;5036382;28;20082;-75
2023/08/17 09:09:33;;;;;;;7.05;4.25;;;;;;;;;;5036175;28;20021;-76
2023/08/17 09:11:59;;;;;;;6.30;4.20;;;;;;;;;;5036300;28;20075;-76
2023/08/17 09:14:24;;;;;;;6.43;4.28;;;;;;;;;;5035958;28;20104;-76
2023/08/17 09:16:49;;;;;;;5.55;3.97;;;;;;;;;;5035958;28;20471;-75
2023/08/17 09:19:15;;;;;;;7.18;4.63;;;;;;;;;;5035845;28;20026;-76
2023/08/17 09:21:42;;;;;;;8.23;4.80;;;;;;;;;;5035879;28;20026;-75
2023/08/17 09:24:07;;;;;;;7.50;4.63;;;;;;;;;;5035851;28;20645;-75
2023/08/17 09:26:33;;;;;;;5.80;4.20;;;;;;;;;;5034900;28;20060;-74
2023/08/17 09:28:59;;;;;;;6.22;4.15;;;;;;;;;;5035973;28;20029;-74
2023/08/17 09:31:25;;;;;;;5.10;4.22;;;;;;;;;;5037772;28;20026;-75
2023/08/17 09:33:51;;;;;;;7.80;4.65;;;;;;;;;;5036361;28;20028;-74
2023/08/17 09:36:21;;;;;;;4.55;4.10;;;;;;;;;;5037130;28;20060;-75
2023/08/17 09:38:49;;;;;;;5.95;4.20;;;;;;;;;;5036112;28;20026;-76
2023/08/17 09:41:14;;;;;;;7.75;4.75;;;;;;;;;;5034883;28;20595;-75
2023/08/17 09:43:40;;;;;;;8.27;4.80;;;;;;;;;;5035588;28;20045;-75
2023/08/17 09:46:07;;;;;;;7.63;4.55;;;;;;;;;;5036522;28;20028;-76
2023/08/17 09:48:32;;;;;;;8.18;4.63;;;;;;;;;;5035428;28;20104;-74
2023/08/17 09:50:59;;;;;;;5.40;4.22;;;;;;;;;;5035472;28;20106;-75
2023/08/17 09:53:25;;;;;;;9.25;4.68;;;;;;;;;;5034079;28;20032;-75
2023/08/17 09:55:50;;;;;;;5.70;4.28;;;;;;;;;;5035580;28;20022;-75
2023/08/17 09:58:16;;;;;;;8.20;4.53;;;;;;;;;;5035225;28;20056;-75
2023/08/17 10:00:48;;;;;;;8.27;4.85;;;;;;;;;;5034993;28;20279;-73
2023/08/17 10:03:14;;;;;;;8.60;4.95;;;;;;;;;;5035479;28;20029;-75
2023/08/17 10:05:42;;;;;;;7.47;5.20;;;;;;;;;;5034203;28;20038;-72
2023/08/17 10:08:10;;;;;;;6.82;4.82;;;;;;;;;;5035044;28;20120;-75
2023/08/17 10:10:40;;;;;;;6.38;4.97;;;;;;;;;;5034351;28;20139;-73
2023/08/17 10:13:10;;;;;;;8.18;4.60;;;;;;;;;;5035820;28;20013;-78
2023/08/17 10:15:41;;;;;;;6.35;4.53;;;;;;;;;;5036004;28;20041;-76
2023/08/17 10:18:14;;;;;;;6.65;5.20;;;;;;;;;;5035423;28;20032;-78
2023/08/17 10:20:45;;;;;;;7.07;5.20;;;;;;;;;;5036083;28;20048;-75
2023/08/17 10:23:15;;;;;;;7.40;5.20;;;;;;;;;;5035495;28;20029;-77
2023/08/17 10:25:42;;;;;;;5.60;4.88;;;;;;;;;;5035151;28;20480;-74
2023/08/17 10:28:09;;;;;;;9.15;5.30;;;;;;;;;;5035024;28;20026;-73
2023/08/17 10:30:35;;;;;;;7.38;5.65;;;;;;;;;;5034611;28;20048;-74
2023/08/17 10:33:03;;;;;;;5.85;5.35;;;;;;;;;;5034551;28;20028;-74
2023/08/17 10:35:29;;;;;;;7.10;5.10;;;;;;;;;;5033144;28;20199;-75
2023/08/17 10:37:55;;;;;;;7.65;5.30;;;;;;;;;;5034521;28;20029;-76
2023/08/17 10:40:28;;;;;;;6.35;5.38;;;;;;;;;;5033987;28;20032;-74
2023/08/17 10:42:55;;;;;;;5.90;4.88;;;;;;;;;;5034165;28;20032;-76
2023/08/17 10:45:28;;;;;;;6.85;5.47;;;;;;;;;;5034490;28;20029;-76
2023/08/17 10:48:00;;;;;;;8.98;5.68;;;;;;;;;;5034127;28;20028;-76
2023/08/17 10:50:26;;;;;;;6.32;4.88;;;;;;;;;;5034285;28;20369;-75
2023/08/17 10:52:53;;;;;;;9.93;5.03;;;;;;;;;;5033335;28;20029;-74
2023/08/17 10:55:35;;;;;;;7.80;4.72;;;;;;;;;;5033633;28;20029;-75
2023/08/17 10:58:01;;;;;;;8.52;5.15;;;;;;;;;;5034166;28;20481;-75
2023/08/17 11:00:33;;;;;;;6.75;5.15;;;;;;;;;;5033916;28;20038;-75
2023/08/17 11:03:07;;;;;;;6.63;5.47;;;;;;;;;;5034366;28;20028;-76
2023/08/17 11:05:55;;;;;;;11.75;5.03;;;;;;;;;;5034125;28;20038;-76
2023/08/17 11:08:31;;;;;;;6.47;5.13;;;;;;;;;;5032564;28;20037;-75
2023/08/17 11:11:04;;;;;;;8.18;5.60;;;;;;;;;;5033728;28;20037;-76
2023/08/17 11:13:31;;;;;;;7.72;5.28;;;;;;;;;;5034329;28;20036;-75
2023/08/17 11:15:58;;;;;;;7.68;5.53;;;;;;;;;;5033528;28;20457;-74
2023/08/17 11:18:23;;;;;;;6.95;5.43;;;;;;;;;;5033462;28;20029;-75
2023/08/17 11:20:50;;;;;;;12.43;5.88;;;;;;;;;;5033542;28;20029;-75
2023/08/17 11:23:15;;;;;;;6.65;5.10;;;;;;;;;;5032305;28;20029;-75
2023/08/17 11:25:41;;;;;;;7.72;5.15;;;;;;;;;;5033405;28;20029;-75
2023/08/17 11:28:08;;;;;;;17.02;5.47;;;;;;;;;;5032886;28;20021;-77
2023/08/17 11:30:35;;;;;;;7.43;5.53;;;;;;;;;;5035222;28;20543;-76
2023/08/17 11:33:01;;;;;;;5.70;4.93;;;;;;;;;;5033470;28;20021;-75
2023/08/17 11:35:26;;;;;;;6.50;5.20;;;;;;;;;;5031301;28;20366;-76
2023/08/17 11:37:51;;;;;;;11.07;5.70;;;;;;;;;;5030222;28;20021;-76
2023/08/17 11:40:17;;;;;;;13.13;5.95;;;;;;;;;;5031652;28;20340;-75
2023/08/17 11:42:44;;;;;;;9.73;5.40;;;;;;;;;;5029754;28;20029;-75
2023/08/17 11:45:10;;;;;;;7.22;5.35;;;;;;;;;;5032375;28;20079;-75
2023/08/17 11:47:37;;;;;;;7.93;5.55;;;;;;;;;;5033001;28;20025;-75
2023/08/17 11:50:04;;;;;;;9.95;5.85;;;;;;;;;;5032058;28;20031;-79
2023/08/17 11:52:32;;;;;;;6.93;5.72;;;;;;;;;;5034102;28;20025;-76
2023/08/17 11:54:58;;;;;;;7.03;5.68;;;;;;;;;;5033036;28;20017;-76
2023/08/17 11:57:23;;;;;;;9.38;5.45;;;;;;;;;;5032966;28;20071;-75
2023/08/17 11:59:49;;;;;;;7.85;5.47;;;;;;;;;;5033007;28;20117;-74
2023/08/17 12:02:14;;;;;;;11.40;5.43;;;;;;;;;;5032966;28;20025;-75
2023/08/17 12:04:39;;;;;;;10.57;5.35;;;;;;;;;;5032746;28;20116;-75
2023/08/17 12:07:05;;;;;;;6.93;4.88;;;;;;;;;;5033121;28;20021;-75
2023/08/17 12:09:34;;;;;;;5.53;4.88;;;;;;;;;;5032857;28;20499;-75
2023/08/17 12:12:00;;;;;;;8.55;5.40;;;;;;;;;;5032852;28;20074;-75
2023/08/17 12:14:27;;;;;;;8.00;5.18;;;;;;;;;;5032700;28;20516;-75
2023/08/17 12:16:53;;;;;;;7.40;5.70;;;;;;;;;;5032791;28;20108;-75
2023/08/17 12:19:22;;;;;;;12.68;5.30;;;;;;;;;;5032776;28;20362;-76
2023/08/17 12:21:50;;;;;;;5.75;4.93;;;;;;;;;;5032964;28;20052;-75
2023/08/17 12:24:16;;;;;;;7.57;4.97;;;;;;;;;;5032964;28;20519;-75
2023/08/17 12:26:43;;;;;;;7.35;4.78;;;;;;;;;;5032834;28;20041;-75
2023/08/17 12:29:08;;;;;;;7.05;4.78;;;;;;;;;;5032828;28;20072;-75
2023/08/17 12:31:34;;;;;;;5.25;4.15;;;;;;;;;;5032775;28;20435;-75
2023/08/17 12:33:59;;;;;;;7.68;4.32;;;;;;;;;;5032669;28;20489;-75
2023/08/17 12:36:24;;;;;;;12.00;4.50;;;;;;;;;;5032703;28;20366;-75
2023/08/17 12:38:49;;;;;;;5.27;4.33;;;;;;;;;;5032752;28;20258;-75
2023/08/17 12:41:15;;;;;;;6.10;4.18;;;;;;;;;;5032615;28;20282;-75
2023/08/17 12:43:40;;;;;;;5.38;4.10;;;;;;;;;;5032902;28;20025;-75
2023/08/17 12:46:05;;;;;;;8.47;4.80;;;;;;;;;;5032483;28;20056;-75
2023/08/17 12:48:30;;;;;;;5.93;4.30;;;;;;;;;;5032815;28;20500;-75
2023/08/17 12:50:56;;;;;;;6.93;4.33;;;;;;;;;;5032517;28;20262;-74
2023/08/17 12:53:21;;;;;;;6.82;4.43;;;;;;;;;;5032599;28;20329;-75
2023/08/17 12:55:47;;;;;;;6.50;4.30;;;;;;;;;;5032616;28;20033;-75
2023/08/17 12:58:12;;;;;;;7.25;4.18;;;;;;;;;;5032787;28;20064;-75
2023/08/17 13:00:37;;;;;;;8.45;4.55;;;;;;;;;;5031163;28;20102;-76
2023/08/17 13:03:03;;;;;;;9.07;4.32;;;;;;;;;;5032495;28;20026;-75
2023/08/17 13:05:28;;;;;;;5.50;4.25;;;;;;;;;;5032583;28;20500;-75
2023/08/17 13:07:54;;;;;;;5.68;4.30;;;;;;;;;;5032442;28;20022;-74
2023/08/17 13:10:19;;;;;;;8.48;4.65;;;;;;;;;;5032561;28;20480;-75
2023/08/17 13:12:47;;;;;;;5.85;4.95;;;;;;;;;;5032671;28;20022;-75
2023/08/17 13:15:12;;;;;;;6.90;4.95;;;;;;;;;;5032179;28;20037;-74
2023/08/17 13:17:37;;;;;;;5.35;4.72;;;;;;;;;;5034928;28;20029;-76
2023/08/17 13:20:05;;;;;;;7.10;4.67;;;;;;;;;;5035784;28;20025;-74
2023/08/17 13:22:30;;;;;;;9.13;4.63;;;;;;;;;;5035936;28;20350;-75
2023/08/17 13:24:55;;;;;;;5.37;4.80;;;;;;;;;;5034575;28;20175;-74
2023/08/17 13:27:21;;;;;;;8.63;4.77;;;;;;;;;;5035140;28;20259;-76
2023/08/17 13:29:46;;;;;;;5.30;4.80;;;;;;;;;;5033683;28;20251;-76
2023/08/17 13:32:11;;;;;;;7.80;4.37;;;;;;;;;;5035537;28;20337;-75
2023/08/17 13:34:36;;;;;;;7.10;4.60;;;;;;;;;;5037107;28;20738;-79
2023/08/17 13:37:02;;;;;;;6.78;4.80;;;;;;;;;;5037893;28;20270;-80
2023/08/17 13:39:28;;;;;;;4.90;4.32;;;;;;;;;;5038144;28;20048;-78
2023/08/17 13:41:53;;;;;;;7.63;4.82;;;;;;;;;;5041073;28;20481;-77
2023/08/17 13:44:18;;;;;;;6.40;4.97;;;;;;;;;;5040298;28;20111;-78
2023/08/17 13:46:44;;;;;;;8.80;4.33;;;;;;;;;;5039641;28;20335;-77
2023/08/17 13:49:09;;;;;;;7.27;5.20;;;;;;;;;;5037811;28;20745;-76
2023/08/17 13:51:34;;;;;;;6.13;4.20;;;;;;;;;;5035687;28;20265;-76
2023/08/17 13:53:59;;;;;;;6.50;4.80;;;;;;;;;;5034728;28;20294;-76
2023/08/17 13:56:25;;;;;;;8.70;4.57;;;;;;;;;;5034693;28;20262;-76
2023/08/17 13:58:50;;;;;;;7.75;5.07;;;;;;;;;;5035241;28;20024;-76
2023/08/17 14:01:16;;;;;;;9.73;4.63;;;;;;;;;;5035138;28;20495;-76
2023/08/17 14:03:42;;;;;;;7.20;5.20;;;;;;;;;;5035161;28;20516;-76
2023/08/17 14:06:07;;;;;;;6.38;4.93;;;;;;;;;;5035078;28;20048;-76
2023/08/17 14:08:33;;;;;;;9.65;5.20;;;;;;;;;;5035101;28;20095;-76
2023/08/17 14:10:58;;;;;;;5.97;4.35;;;;;;;;;;5033591;28;20032;-76
2023/08/17 14:13:23;;;;;;;7.53;4.90;;;;;;;;;;5033641;28;20033;-76
2023/08/17 14:15:49;;;;;;;6.63;4.70;;;;;;;;;;5033519;28;20025;-76
2023/08/17 14:18:14;;;;;;;6.95;4.53;;;;;;;;;;5034872;28;20259;-77
2023/08/17 14:20:39;;;;;;;6.37;4.67;;;;;;;;;;5033432;28;20021;-76
2023/08/17 14:23:04;;;;;;;6.53;4.63;;;;;;;;;;5033570;28;20257;-76
2023/08/17 14:25:30;;;;;;;5.88;4.95;;;;;;;;;;5033552;28;20325;-76
2023/08/17 14:27:57;;;;;;;5.60;4.47;;;;;;;;;;5033712;28;20026;-77
2023/08/17 14:30:24;;;;;;;8.23;4.90;;;;;;;;;;5034693;28;20287;-76
2023/08/17 14:32:49;;;;;;;6.60;4.90;;;;;;;;;;5034316;28;20112;-76
2023/08/17 14:35:14;;;;;;;12.00;5.18;;;;;;;;;;5034208;28;20052;-76